createdAt,value
2022-10-26T00:01:22.853Z,6.30
2022-10-26T00:03:50.430Z,6.20
2022-10-26T00:06:21.389Z,6.10
2022-10-26T00:08:49.615Z,6.00
2022-10-26T00:11:18.445Z,6.00
2022-10-26T00:13:47.578Z,6.00
2022-10-26T00:16:26.668Z,6.00
2022-10-26T00:18:54.233Z,6.00
2022-10-26T00:25:27.933Z,6.10
2022-10-26T00:27:55.412Z,6.00
2022-10-26T00:30:22.939Z,6.00
2022-10-26T00:32:50.348Z,5.90
2022-10-26T00:35:23.937Z,6.00
2022-10-26T00:37:57.202Z,6.10
2022-10-26T00:40:29.913Z,6.20
2022-10-26T00:42:57.774Z,6.10
2022-10-26T00:45:29.873Z,6.00
2022-10-26T00:48:06.764Z,6.00
2022-10-26T00:50:42.867Z,6.10
2022-10-26T00:53:12.242Z,6.00
2022-10-26T00:55:46.516Z,6.10
2022-10-26T00:58:15.103Z,6.10
2022-10-26T01:00:43.461Z,6.00
2022-10-26T01:03:11.944Z,5.90
2022-10-26T01:05:42.789Z,5.80
2022-10-26T01:08:10.499Z,5.70
2022-10-26T01:10:40.664Z,5.60
2022-10-26T01:13:08.710Z,5.50
2022-10-26T01:15:42.907Z,5.50
2022-10-26T01:18:30.912Z,5.50
2022-10-26T01:21:07.235Z,5.40
2022-10-26T01:23:37.265Z,5.40
2022-10-26T01:26:18.497Z,5.50
2022-10-26T01:29:07.796Z,5.60
2022-10-26T01:31:47.514Z,5.70
2022-10-26T01:34:38.018Z,6.00
2022-10-26T01:37:17.877Z,6.10
2022-10-26T01:40:02.797Z,6.00
2022-10-26T01:42:32.442Z,5.90
2022-10-26T01:45:07.533Z,5.80
2022-10-26T01:47:37.308Z,5.70
2022-10-26T01:50:06.697Z,5.60
2022-10-26T01:52:34.559Z,5.50
2022-10-26T01:55:39.667Z,5.40
2022-10-26T01:58:29.449Z,5.40
2022-10-26T02:01:17.284Z,5.70
2022-10-26T02:03:53.707Z,5.80
2022-10-26T02:06:34.173Z,5.70
2022-10-26T02:09:24.080Z,5.70
2022-10-26T02:11:54.276Z,5.90
2022-10-26T02:14:43.992Z,5.90
2022-10-26T02:17:16.673Z,6.00
2022-10-26T02:20:06.244Z,6.00
2022-10-26T02:22:46.041Z,6.00
2022-10-26T02:25:37.895Z,6.20
2022-10-26T02:28:11.118Z,6.20
2022-10-26T02:30:41.476Z,6.30
2022-10-26T02:33:11.299Z,6.40
2022-10-26T02:35:40.711Z,6.30
2022-10-26T02:38:13.730Z,6.10
2022-10-26T02:40:42.504Z,5.80
2022-10-26T02:43:14.772Z,5.70
2022-10-26T02:45:49.564Z,5.60
2022-10-26T02:48:17.286Z,5.50
2022-10-26T02:51:14.530Z,5.60
2022-10-26T02:54:12.877Z,5.80
2022-10-26T02:57:12.842Z,5.90
2022-10-26T02:59:44.197Z,5.90
2022-10-26T03:02:14.341Z,6.00
2022-10-26T03:04:41.885Z,6.20
2022-10-26T03:07:09.690Z,6.30
2022-10-26T03:09:37.154Z,6.40
2022-10-26T03:12:04.948Z,6.20
2022-10-26T03:14:32.348Z,5.90
2022-10-26T03:16:59.761Z,5.80
2022-10-26T03:19:27.169Z,5.80
2022-10-26T03:21:54.655Z,5.70
2022-10-26T03:24:22.050Z,5.70
2022-10-26T03:26:49.555Z,5.50
2022-10-26T03:29:16.948Z,5.40
2022-10-26T03:31:44.293Z,5.30
2022-10-26T03:34:11.685Z,5.20
2022-10-26T03:36:39.081Z,5.20
2022-10-26T03:39:06.490Z,5.00
2022-10-26T03:41:33.863Z,4.90
2022-10-26T03:44:01.284Z,4.80
2022-10-26T03:46:28.706Z,4.70
2022-10-26T03:48:56.168Z,4.70
2022-10-26T03:51:23.624Z,4.70
2022-10-26T03:53:51.025Z,4.80
2022-10-26T03:56:18.400Z,4.70
2022-10-26T03:58:45.848Z,4.60
2022-10-26T04:01:13.290Z,4.60
2022-10-26T04:03:40.819Z,4.50
2022-10-26T04:06:08.532Z,4.50
2022-10-26T04:08:36.068Z,4.40
2022-10-26T04:11:04.640Z,4.40
2022-10-26T04:13:33.159Z,4.40
2022-10-26T04:16:00.626Z,4.50
2022-10-26T04:18:28.046Z,4.50
2022-10-26T04:20:55.506Z,4.40
2022-10-26T04:23:22.919Z,4.40
2022-10-26T04:25:50.407Z,4.40
2022-10-26T04:28:17.866Z,4.40
2022-10-26T04:30:45.275Z,4.50
2022-10-26T04:33:12.800Z,4.40
2022-10-26T04:35:40.298Z,4.40
2022-10-26T04:38:08.049Z,4.30
2022-10-26T04:40:35.754Z,4.30
2022-10-26T04:43:03.354Z,4.30
2022-10-26T04:45:31.388Z,4.20
2022-10-26T04:48:13.335Z,4.20
2022-10-26T04:50:41.701Z,4.20
2022-10-26T04:53:10.463Z,4.20
2022-10-26T04:55:38.011Z,4.20
2022-10-26T04:58:06.512Z,4.10
2022-10-26T05:00:34.703Z,4.30
2022-10-26T05:03:03.522Z,4.30
2022-10-26T05:05:33.732Z,4.30
2022-10-26T05:08:01.273Z,4.30
2022-10-26T05:10:29.108Z,4.20
2022-10-26T05:12:59.409Z,4.30
2022-10-26T05:15:27.671Z,4.30
2022-10-26T05:18:04.315Z,4.30
2022-10-26T05:20:34.681Z,4.30
2022-10-26T05:23:11.670Z,4.20
2022-10-26T05:25:39.416Z,4.20
2022-10-26T05:28:13.440Z,4.10
2022-10-26T05:30:43.275Z,4.10
2022-10-26T05:33:13.240Z,4.10
2022-10-26T05:35:41.567Z,4.10
2022-10-26T05:38:18.360Z,4.00
2022-10-26T05:40:54.278Z,4.10
2022-10-26T05:43:24.363Z,4.10
2022-10-26T05:45:52.125Z,4.20
2022-10-26T05:48:20.464Z,4.20
2022-10-26T05:50:48.404Z,4.30
2022-10-26T05:53:16.208Z,4.30
2022-10-26T05:55:44.681Z,4.40
2022-10-26T05:58:14.875Z,4.50
2022-10-26T06:01:11.771Z,4.50
2022-10-26T06:04:06.591Z,4.70
2022-10-26T06:06:42.490Z,4.70
2022-10-26T06:09:13.049Z,4.70
2022-10-26T06:11:41.273Z,4.70
2022-10-26T06:14:10.300Z,4.70
2022-10-26T06:17:33.595Z,4.60
2022-10-26T06:20:08.844Z,4.60
2022-10-26T06:23:19.009Z,4.60
2022-10-26T06:25:49.017Z,4.60
2022-10-26T06:28:53.617Z,4.70
2022-10-26T06:31:21.200Z,4.70
2022-10-26T06:33:49.087Z,4.80
2022-10-26T06:36:16.486Z,4.90
2022-10-26T06:38:45.915Z,5.00
2022-10-26T06:41:15.753Z,5.20
2022-10-26T06:43:43.927Z,5.20
2022-10-26T06:46:48.820Z,5.30
2022-10-26T06:49:22.415Z,5.40
2022-10-26T06:52:07.394Z,5.50
2022-10-26T06:54:52.153Z,5.70
2022-10-26T06:57:23.434Z,5.80
2022-10-26T06:59:57.478Z,6.00
2022-10-26T07:02:25.421Z,6.10
2022-10-26T07:04:53.000Z,6.30
2022-10-26T07:07:27.594Z,6.50
2022-10-26T07:09:55.097Z,6.70
2022-10-26T07:12:22.784Z,6.70
2022-10-26T07:14:50.245Z,6.90
2022-10-26T07:17:17.596Z,7.10
2022-10-26T07:19:45.174Z,7.30
2022-10-26T07:22:13.048Z,7.50
2022-10-26T07:24:41.033Z,7.70
2022-10-26T07:27:09.083Z,7.90
2022-10-26T07:29:36.528Z,8.00
2022-10-26T07:32:04.165Z,8.20
2022-10-26T07:34:31.546Z,8.30
2022-10-26T07:37:00.837Z,8.50
2022-10-26T07:39:28.249Z,8.70
2022-10-26T07:41:55.679Z,8.70
2022-10-26T07:44:23.072Z,8.80
2022-10-26T07:46:51.131Z,8.90
2022-10-26T07:49:19.606Z,9.00
2022-10-26T07:51:47.620Z,9.00
2022-10-26T07:54:15.186Z,9.20
2022-10-26T07:56:42.630Z,9.20
2022-10-26T07:59:13.385Z,9.20
2022-10-26T08:01:40.815Z,9.20
2022-10-26T08:04:08.240Z,9.40
2022-10-26T08:06:35.809Z,9.40
2022-10-26T08:09:03.608Z,9.50
2022-10-26T08:11:31.004Z,9.60
2022-10-26T08:13:58.485Z,9.70
2022-10-26T08:16:26.042Z,9.80
2022-10-26T08:18:53.482Z,10.10
2022-10-26T08:21:35.803Z,10.20
2022-10-26T08:24:07.266Z,10.30
2022-10-26T08:26:34.868Z,10.40
2022-10-26T08:29:02.682Z,10.60
2022-10-26T08:31:30.524Z,10.70
2022-10-26T08:33:57.956Z,10.80
2022-10-26T08:36:28.135Z,10.80
2022-10-26T08:38:55.592Z,10.90
2022-10-26T08:41:38.027Z,11.00
2022-10-26T08:44:32.518Z,11.10
2022-10-26T08:47:14.310Z,11.20
2022-10-26T08:50:04.671Z,11.40
2022-10-26T08:53:14.563Z,11.60
2022-10-26T08:55:56.394Z,11.90
2022-10-26T08:58:32.558Z,12.10
2022-10-26T09:01:01.467Z,12.20
2022-10-26T09:03:28.952Z,12.40
2022-10-26T09:06:44.861Z,12.60
2022-10-26T09:09:52.458Z,12.90
2022-10-26T09:12:48.203Z,13.10
2022-10-26T09:15:45.140Z,13.30
2022-10-26T09:18:26.973Z,13.40
2022-10-26T09:21:12.293Z,13.60
2022-10-26T09:24:03.369Z,13.80
2022-10-26T09:26:54.680Z,14.00
2022-10-26T09:29:37.181Z,14.30
2022-10-26T09:32:21.423Z,14.40
2022-10-26T09:34:55.484Z,14.50
2022-10-26T09:37:34.602Z,14.90
2022-10-26T09:40:18.633Z,15.00
2022-10-26T09:43:06.121Z,15.10
2022-10-26T09:45:41.322Z,15.20
2022-10-26T09:48:33.701Z,15.40
2022-10-26T09:51:04.473Z,15.50
2022-10-26T09:53:32.974Z,15.70
2022-10-26T09:56:10.348Z,15.90
2022-10-26T09:58:47.710Z,16.10
2022-10-26T10:01:35.591Z,16.20
2022-10-26T10:04:18.243Z,16.20
2022-10-26T10:06:48.017Z,16.20
2022-10-26T10:09:25.590Z,16.20
2022-10-26T10:12:02.036Z,16.40
2022-10-26T10:14:39.924Z,16.70
2022-10-26T10:17:21.892Z,17.00
2022-10-26T10:19:49.780Z,17.20
2022-10-26T10:22:18.795Z,17.40
2022-10-26T10:25:01.644Z,17.50
2022-10-26T10:27:31.156Z,17.50
2022-10-26T10:30:20.177Z,17.50
2022-10-26T10:33:04.537Z,17.70
2022-10-26T10:35:32.200Z,17.80
2022-10-26T10:38:00.096Z,17.90
2022-10-26T10:40:30.969Z,18.00
2022-10-26T10:43:15.890Z,18.10
2022-10-26T10:45:49.897Z,18.10
2022-10-26T10:48:23.984Z,18.10
2022-10-26T10:51:00.808Z,18.00
2022-10-26T10:53:43.766Z,18.00
2022-10-26T10:56:23.316Z,18.40
2022-10-26T10:59:32.186Z,18.70
2022-10-26T11:02:34.802Z,18.40
2022-10-26T11:05:07.702Z,18.40
2022-10-26T11:08:02.722Z,18.60
2022-10-26T11:10:38.518Z,18.90
2022-10-26T11:13:18.847Z,18.90
2022-10-26T11:15:51.406Z,18.90
2022-10-26T11:18:46.260Z,18.90
2022-10-26T11:21:26.299Z,19.00
2022-10-26T11:24:03.084Z,18.90
2022-10-26T11:26:57.305Z,18.60
2022-10-26T11:30:03.126Z,18.70
2022-10-26T11:32:48.732Z,18.90
2022-10-26T11:35:28.590Z,19.20
2022-10-26T11:38:05.836Z,19.30
2022-10-26T11:40:56.640Z,19.60
2022-10-26T11:43:40.649Z,20.00
2022-10-26T11:46:26.846Z,20.10
2022-10-26T11:49:40.177Z,20.20
2022-10-26T11:52:33.978Z,20.50
2022-10-26T11:55:02.859Z,21.00
2022-10-26T11:57:33.427Z,20.20
2022-10-26T12:00:07.046Z,20.50
2022-10-26T12:02:47.970Z,21.20
2022-10-26T12:05:35.455Z,20.90
2022-10-26T12:08:30.418Z,21.10
2022-10-26T12:11:51.023Z,21.80
2022-10-26T12:14:36.404Z,21.50
2022-10-26T12:17:37.759Z,22.10
2022-10-26T12:20:48.896Z,22.60
2022-10-26T12:23:23.388Z,23.40
2022-10-26T12:26:23.329Z,22.90
2022-10-26T12:29:24.184Z,23.40
2022-10-26T12:31:51.632Z,24.20
2022-10-26T12:34:50.994Z,25.00
2022-10-26T12:37:38.259Z,24.70
2022-10-26T12:40:33.743Z,24.00
2022-10-26T12:43:24.313Z,24.60
2022-10-26T12:46:13.315Z,25.60
2022-10-26T12:48:46.743Z,26.30
2022-10-26T12:51:21.827Z,26.50
2022-10-26T12:54:24.071Z,25.60
2022-10-26T12:57:28.778Z,25.40
2022-10-26T13:00:06.408Z,24.10
2022-10-26T13:03:30.869Z,24.60
2022-10-26T13:06:31.734Z,25.00
2022-10-26T13:09:02.252Z,25.70
2022-10-26T13:11:41.722Z,24.80
2022-10-26T13:14:37.401Z,24.80
2022-10-26T13:17:06.876Z,25.40
2022-10-26T13:20:03.068Z,25.40
2022-10-26T13:22:32.352Z,25.50
2022-10-26T13:25:05.870Z,25.30
2022-10-26T13:27:33.206Z,25.20
2022-10-26T13:30:23.162Z,25.70
2022-10-26T13:32:56.147Z,25.30
2022-10-26T13:35:25.292Z,24.80
2022-10-26T13:37:56.513Z,24.40
2022-10-26T13:40:27.429Z,24.90
2022-10-26T13:43:03.922Z,24.60
2022-10-26T13:45:43.123Z,24.30
2022-10-26T13:48:40.897Z,23.20
2022-10-26T13:51:25.828Z,23.40
2022-10-26T13:54:15.481Z,23.70
2022-10-26T13:57:29.798Z,24.30
2022-10-26T14:00:03.040Z,24.60
2022-10-26T14:02:31.744Z,24.30
2022-10-26T14:05:05.411Z,24.70
2022-10-26T14:07:40.019Z,24.90
2022-10-26T14:10:07.801Z,24.70
2022-10-26T14:12:35.577Z,24.10
2022-10-26T14:15:09.976Z,23.80
2022-10-26T14:17:37.400Z,23.10
2022-10-26T14:20:06.032Z,23.20
2022-10-26T14:22:33.579Z,23.40
2022-10-26T14:25:01.807Z,23.40
2022-10-26T14:27:38.120Z,23.70
2022-10-26T14:30:28.500Z,23.20
2022-10-26T14:32:56.681Z,22.50
2022-10-26T14:35:42.266Z,22.50
2022-10-26T14:38:23.192Z,22.70
2022-10-26T14:40:52.573Z,22.80
2022-10-26T14:43:25.081Z,22.70
2022-10-26T14:45:54.554Z,22.80
2022-10-26T14:48:25.726Z,22.80
2022-10-26T14:51:22.060Z,22.70
2022-10-26T14:53:52.658Z,22.60
2022-10-26T14:56:29.661Z,22.30
2022-10-26T14:58:58.917Z,22.10
2022-10-26T15:01:31.925Z,21.90
2022-10-26T15:04:07.416Z,21.50
2022-10-26T15:06:43.224Z,20.80
2022-10-26T15:09:49.084Z,20.40
2022-10-26T15:12:38.361Z,20.00
2022-10-26T15:17:59.828Z,19.70
2022-10-26T15:20:29.626Z,19.50
2022-10-26T15:23:01.056Z,19.20
2022-10-26T15:25:34.511Z,18.60
2022-10-26T15:28:24.852Z,17.90
2022-10-26T15:31:11.403Z,17.10
2022-10-26T15:33:44.543Z,16.20
2022-10-26T15:36:16.165Z,15.50
2022-10-26T15:38:45.532Z,14.80
2022-10-26T15:41:22.668Z,14.30
2022-10-26T15:43:52.096Z,13.90
2022-10-26T15:46:20.869Z,13.70
2022-10-26T15:48:56.540Z,13.40
2022-10-26T15:51:24.229Z,13.20
2022-10-26T15:53:51.925Z,12.90
2022-10-26T15:56:23.716Z,12.70
2022-10-26T15:58:51.381Z,12.50
2022-10-26T16:01:25.078Z,12.40
2022-10-26T16:03:53.193Z,12.40
2022-10-26T16:06:34.442Z,12.40
2022-10-26T16:09:04.963Z,12.30
2022-10-26T16:11:33.004Z,12.20
2022-10-26T16:14:03.596Z,12.10
2022-10-26T16:16:31.641Z,12.00
2022-10-26T16:19:18.420Z,12.00
2022-10-26T16:21:46.616Z,11.70
2022-10-26T16:24:14.027Z,11.40
2022-10-26T16:26:42.128Z,11.30
2022-10-26T16:29:09.685Z,11.10
2022-10-26T16:31:37.086Z,11.10
2022-10-26T16:34:04.742Z,11.00
2022-10-26T16:36:34.756Z,11.00
2022-10-26T16:41:35.183Z,11.10
2022-10-26T16:44:02.597Z,11.20
2022-10-26T16:46:30.122Z,11.10
2022-10-26T16:48:57.589Z,11.10
2022-10-26T16:51:27.677Z,11.20
2022-10-26T16:53:56.898Z,11.10
2022-10-26T16:56:28.245Z,11.10
2022-10-26T16:58:56.859Z,10.90
2022-10-26T17:01:24.413Z,10.80
2022-10-26T17:03:53.080Z,10.80
2022-10-26T17:06:21.137Z,10.60
2022-10-26T17:08:48.660Z,10.40
2022-10-26T17:11:21.804Z,10.20
2022-10-26T17:13:54.635Z,10.10
2022-10-26T17:16:24.374Z,9.90
2022-10-26T17:18:52.657Z,9.90
2022-10-26T17:21:34.564Z,10.00
2022-10-26T17:24:03.197Z,9.90
2022-10-26T17:26:30.674Z,9.70
2022-10-26T17:28:58.560Z,9.60
2022-10-26T17:31:26.598Z,9.50
2022-10-26T17:33:54.547Z,9.40
2022-10-26T17:36:23.626Z,9.50
2022-10-26T17:38:53.981Z,9.40
2022-10-26T17:41:23.166Z,9.50
2022-10-26T17:43:51.446Z,9.50
2022-10-26T17:46:25.034Z,9.30
2022-10-26T17:49:00.933Z,9.20
2022-10-26T17:51:30.953Z,9.10
2022-10-26T17:54:01.961Z,9.10
2022-10-26T17:56:32.375Z,9.20
2022-10-26T17:59:03.064Z,9.30
2022-10-26T18:01:32.013Z,9.40
2022-10-26T18:04:00.736Z,9.50
2022-10-26T18:06:28.520Z,9.60
2022-10-26T18:08:59.234Z,9.60
2022-10-26T18:11:28.551Z,9.50
2022-10-26T18:13:57.475Z,9.40
2022-10-26T18:16:26.939Z,9.30
2022-10-26T18:19:01.880Z,9.10
2022-10-26T18:21:33.251Z,9.20
2022-10-26T18:24:00.747Z,9.20
2022-10-26T18:26:30.829Z,9.20
2022-10-26T18:29:00.788Z,9.30
2022-10-26T18:31:30.927Z,9.30
2022-10-26T18:34:00.855Z,9.20
2022-10-26T18:36:29.448Z,9.20
2022-10-26T18:38:57.083Z,9.20
2022-10-26T18:41:25.989Z,9.10
2022-10-26T18:43:58.952Z,8.90
2022-10-26T18:46:30.581Z,8.80
2022-10-26T18:49:00.918Z,8.70
2022-10-26T18:51:34.384Z,8.70
2022-10-26T18:54:02.521Z,8.70
2022-10-26T18:56:30.195Z,8.60
2022-10-26T18:59:00.225Z,8.60
2022-10-26T19:01:33.775Z,8.60
2022-10-26T19:04:04.842Z,8.60
2022-10-26T19:06:39.970Z,8.50
2022-10-26T19:09:10.237Z,8.40
2022-10-26T19:11:38.882Z,8.40
2022-10-26T19:14:07.646Z,8.30
2022-10-26T19:16:51.879Z,8.20
2022-10-26T19:19:21.036Z,8.20
2022-10-26T19:21:49.904Z,8.10
2022-10-26T19:24:21.321Z,8.10
2022-10-26T19:26:50.631Z,8.20
2022-10-26T19:29:19.171Z,8.30
2022-10-26T19:31:48.115Z,8.40
2022-10-26T19:34:16.806Z,8.50
2022-10-26T19:36:46.492Z,8.50
2022-10-26T19:39:17.807Z,8.40
2022-10-26T19:41:46.507Z,8.30
2022-10-26T19:44:15.620Z,8.30
2022-10-26T19:46:44.311Z,8.40
2022-10-26T19:49:17.689Z,8.40
2022-10-26T19:51:45.350Z,8.50
2022-10-26T19:54:12.785Z,8.50
2022-10-26T19:56:40.322Z,8.40
2022-10-26T19:59:08.383Z,8.20
2022-10-26T20:01:35.916Z,8.00
2022-10-26T20:04:04.385Z,7.90
2022-10-26T20:06:31.932Z,7.80
2022-10-26T20:09:00.230Z,7.70
2022-10-26T20:11:28.382Z,7.60
2022-10-26T20:13:56.672Z,7.80
2022-10-26T20:16:24.814Z,7.80
2022-10-26T20:18:52.245Z,7.80
2022-10-26T20:21:19.927Z,7.80
2022-10-26T20:23:47.406Z,7.80
2022-10-26T20:26:18.356Z,7.70
2022-10-26T20:28:51.385Z,7.50
2022-10-26T20:31:19.566Z,7.50
2022-10-26T20:33:51.987Z,7.50
2022-10-26T20:36:20.485Z,7.50
2022-10-26T20:38:48.315Z,7.50
2022-10-26T20:41:16.386Z,7.70
2022-10-26T20:43:44.324Z,7.70
2022-10-26T20:46:26.337Z,7.70
2022-10-26T20:48:55.178Z,7.60
2022-10-26T20:52:15.220Z,7.60
2022-10-26T20:54:48.349Z,7.70
2022-10-26T20:57:21.196Z,7.70
2022-10-26T20:59:52.461Z,7.80
2022-10-26T21:02:22.388Z,7.80
2022-10-26T21:04:49.971Z,7.70
2022-10-26T21:07:17.416Z,7.50
2022-10-26T21:09:44.825Z,7.60
2022-10-26T21:12:12.245Z,7.50
2022-10-26T21:14:41.114Z,7.50
2022-10-26T21:17:09.027Z,7.40
2022-10-26T21:19:37.012Z,7.40
2022-10-26T21:22:04.613Z,7.40
2022-10-26T21:24:32.126Z,7.40
2022-10-26T21:26:59.614Z,7.40
2022-10-26T21:29:27.156Z,7.20
2022-10-26T21:31:54.633Z,7.20
2022-10-26T21:34:22.046Z,7.10
2022-10-26T21:36:49.525Z,7.30
2022-10-26T21:39:16.916Z,7.30
2022-10-26T21:41:44.477Z,7.20
2022-10-26T21:44:24.651Z,7.20
2022-10-26T21:46:59.338Z,7.20
2022-10-26T21:49:26.746Z,7.10
2022-10-26T21:51:54.174Z,7.00
2022-10-26T21:54:21.610Z,6.90
2022-10-26T21:56:48.946Z,6.90
2022-10-26T21:59:16.374Z,6.90
2022-10-26T22:01:44.072Z,7.00
2022-10-26T22:04:11.860Z,7.10
2022-10-26T22:06:39.398Z,7.20
2022-10-26T22:09:06.981Z,7.20
2022-10-26T22:11:34.660Z,7.30
2022-10-26T22:14:02.322Z,7.30
2022-10-26T22:16:31.980Z,7.40
2022-10-26T22:19:05.748Z,7.50
2022-10-26T22:21:37.358Z,7.60
2022-10-26T22:24:05.587Z,7.70
